createdAt,value
2022-10-26T00:00:29.297Z,100477.50
2022-10-26T00:03:18.510Z,100475.75
2022-10-26T00:05:46.128Z,100478.59
2022-10-26T00:08:14.058Z,100481.94
2022-10-26T00:10:41.563Z,100480.78
2022-10-26T00:13:12.276Z,100491.69
2022-10-26T00:15:40.873Z,100488.22
2022-10-26T00:18:08.466Z,100484.06
2022-10-26T00:20:37.728Z,100491.25
2022-10-26T00:23:05.101Z,100494.63
2022-10-26T00:25:32.788Z,100499.72
2022-10-26T00:28:00.530Z,100504.78
2022-10-26T00:30:28.071Z,100504.56
2022-10-26T00:32:55.499Z,100511.88
2022-10-26T00:35:34.740Z,100501.13
2022-10-26T00:38:11.987Z,100503.34
2022-10-26T00:40:40.201Z,100493.16
2022-10-26T00:43:17.866Z,100491.84
2022-10-26T00:45:46.303Z,100495.31
2022-10-26T00:48:21.129Z,100494.47
2022-10-26T00:50:48.763Z,100488.81
2022-10-26T00:53:18.378Z,100495.09
2022-10-26T00:55:48.786Z,100492.56
2022-10-26T00:58:17.093Z,100500.66
2022-10-26T01:00:45.047Z,100492.63
2022-10-26T01:03:12.461Z,100496.47
2022-10-26T01:05:43.431Z,100496.09
2022-10-26T01:08:11.039Z,100491.00
2022-10-26T01:10:42.083Z,100485.22
2022-10-26T01:13:10.494Z,100486.06
2022-10-26T01:15:48.781Z,100480.53
2022-10-26T01:18:24.227Z,100477.00
2022-10-26T01:21:26.370Z,100483.50
2022-10-26T01:24:18.117Z,100482.75
2022-10-26T01:27:05.324Z,100484.59
2022-10-26T01:29:58.614Z,100495.94
2022-10-26T01:32:34.301Z,100491.94
2022-10-26T01:35:08.963Z,100485.22
2022-10-26T01:37:41.755Z,100480.44
2022-10-26T01:40:14.815Z,100482.75
2022-10-26T01:42:49.455Z,100483.28
2022-10-26T01:45:18.104Z,100481.03
2022-10-26T01:47:48.869Z,100472.72
2022-10-26T01:50:18.482Z,100480.97
2022-10-26T01:52:49.786Z,100482.56
2022-10-26T01:55:40.702Z,100484.84
2022-10-26T01:58:19.717Z,100475.31
2022-10-26T02:00:59.397Z,100475.91
2022-10-26T02:03:38.054Z,100475.34
2022-10-26T02:06:16.858Z,100472.81
2022-10-26T02:08:56.941Z,100478.06
2022-10-26T02:11:36.748Z,100485.56
2022-10-26T02:16:55.823Z,100472.25
2022-10-26T02:19:34.220Z,100468.56
2022-10-26T02:22:06.382Z,100468.25
2022-10-26T02:24:34.458Z,100472.91
2022-10-26T02:27:07.843Z,100470.81
2022-10-26T02:29:37.337Z,100464.97
2022-10-26T02:32:08.497Z,100471.16
2022-10-26T02:34:39.922Z,100469.47
2022-10-26T02:37:08.727Z,100473.31
2022-10-26T02:39:39.491Z,100475.47
2022-10-26T02:42:09.419Z,100479.53
2022-10-26T02:44:42.999Z,100489.66
2022-10-26T02:47:13.303Z,100481.53
2022-10-26T02:49:43.596Z,100475.88
2022-10-26T02:52:17.018Z,100488.66
2022-10-26T02:54:53.383Z,100490.78
2022-10-26T02:57:25.555Z,100477.72
2022-10-26T02:59:54.357Z,100480.25
2022-10-26T03:02:23.260Z,100489.16
2022-10-26T03:04:53.952Z,100482.28
2022-10-26T03:07:22.555Z,100482.94
2022-10-26T03:09:50.330Z,100483.09
2022-10-26T03:12:18.534Z,100482.28
2022-10-26T03:14:46.347Z,100493.78
2022-10-26T03:17:13.698Z,100487.00
2022-10-26T03:19:41.593Z,100488.28
2022-10-26T03:22:10.414Z,100493.78
2022-10-26T03:24:38.680Z,100490.88
2022-10-26T03:27:05.973Z,100494.97
2022-10-26T03:29:33.624Z,100492.31
2022-10-26T03:32:02.511Z,100489.34
2022-10-26T03:34:30.578Z,100485.25
2022-10-26T03:36:58.136Z,100489.19
2022-10-26T03:39:27.236Z,100493.25
2022-10-26T03:44:27.160Z,100495.94
2022-10-26T03:46:54.600Z,100497.63
2022-10-26T03:49:22.343Z,100502.00
2022-10-26T03:51:49.982Z,100501.31
2022-10-26T03:54:17.822Z,100498.94
2022-10-26T03:56:48.388Z,100499.22
2022-10-26T03:59:18.216Z,100496.25
2022-10-26T04:01:45.578Z,100496.97
2022-10-26T04:04:14.112Z,100495.41
2022-10-26T04:06:41.385Z,100503.19
2022-10-26T04:09:09.262Z,100502.03
2022-10-26T04:11:36.758Z,100506.53
2022-10-26T04:14:05.929Z,100497.81
2022-10-26T04:16:33.613Z,100503.72
2022-10-26T04:19:01.317Z,100505.41
2022-10-26T04:21:28.713Z,100507.09
2022-10-26T04:23:56.456Z,100502.47
2022-10-26T04:26:23.788Z,100500.78
2022-10-26T04:28:51.417Z,100497.69
2022-10-26T04:31:20.356Z,100502.59
2022-10-26T04:33:48.213Z,100499.38
2022-10-26T04:36:15.514Z,100504.72
2022-10-26T04:38:43.470Z,100510.75
2022-10-26T04:41:10.734Z,100513.28
2022-10-26T04:43:38.464Z,100518.19
2022-10-26T04:46:06.309Z,100514.41
2022-10-26T04:48:35.650Z,100513.03
2022-10-26T04:51:05.659Z,100513.84
2022-10-26T04:53:42.764Z,100507.81
2022-10-26T04:56:12.093Z,100511.47
2022-10-26T04:58:39.894Z,100508.22
2022-10-26T05:01:07.304Z,100507.09
2022-10-26T05:03:36.435Z,100513.69
2022-10-26T05:06:04.143Z,100507.50
2022-10-26T05:08:31.814Z,100512.84
2022-10-26T05:10:59.166Z,100521.72
2022-10-26T05:15:59.317Z,100516.50
2022-10-26T05:18:26.805Z,100515.94
2022-10-26T05:20:56.103Z,100522.84
2022-10-26T05:23:24.267Z,100524.97
2022-10-26T05:25:51.937Z,100522.72
2022-10-26T05:28:19.588Z,100524.50
2022-10-26T05:30:47.200Z,100530.31
2022-10-26T05:33:15.275Z,100527.91
2022-10-26T05:35:43.022Z,100532.53
2022-10-26T05:38:14.894Z,100532.69
2022-10-26T05:40:47.785Z,100531.84
2022-10-26T05:43:15.827Z,100541.69
2022-10-26T05:45:43.158Z,100537.72
2022-10-26T05:48:10.775Z,100542.91
2022-10-26T05:50:38.247Z,100535.06
2022-10-26T05:53:05.918Z,100538.16
2022-10-26T05:55:35.660Z,100535.19
2022-10-26T05:58:03.907Z,100541.56
2022-10-26T06:00:32.208Z,100543.09
2022-10-26T06:03:08.950Z,100539.84
2022-10-26T06:05:42.747Z,100540.00
2022-10-26T06:08:11.343Z,100546.22
2022-10-26T06:10:41.290Z,100545.94
2022-10-26T06:13:09.812Z,100551.69
2022-10-26T06:15:45.385Z,100543.09
2022-10-26T06:18:21.851Z,100547.47
2022-10-26T06:21:01.137Z,100551.81
2022-10-26T06:23:45.511Z,100554.34
2022-10-26T06:26:27.605Z,100550.09
2022-10-26T06:29:05.792Z,100554.47
2022-10-26T06:31:33.196Z,100559.66
2022-10-26T06:34:01.082Z,100562.00
2022-10-26T06:36:30.917Z,100574.34
2022-10-26T06:39:02.428Z,100570.22
2022-10-26T06:41:34.554Z,100564.66
2022-10-26T06:44:02.815Z,100569.34
2022-10-26T06:46:37.004Z,100562.91
2022-10-26T06:49:12.423Z,100568.00
2022-10-26T06:51:46.169Z,100558.22
2022-10-26T06:54:20.029Z,100565.78
2022-10-26T06:56:49.842Z,100563.44
2022-10-26T06:59:32.741Z,100555.06
2022-10-26T07:02:02.883Z,100551.56
2022-10-26T07:04:33.369Z,100555.72
2022-10-26T07:07:00.711Z,100557.88
2022-10-26T07:09:28.571Z,100560.63
2022-10-26T07:11:57.270Z,100556.63
2022-10-26T07:14:24.844Z,100560.16
2022-10-26T07:16:52.054Z,100564.84
2022-10-26T07:19:19.614Z,100561.00
2022-10-26T07:21:46.958Z,100562.00
2022-10-26T07:24:14.542Z,100573.72
2022-10-26T07:26:42.010Z,100572.41
2022-10-26T07:29:11.430Z,100578.97
2022-10-26T07:31:38.824Z,100579.84
2022-10-26T07:34:06.307Z,100566.50
2022-10-26T07:36:33.589Z,100566.41
2022-10-26T07:39:01.308Z,100572.13
2022-10-26T07:41:28.632Z,100571.34
2022-10-26T07:43:56.535Z,100574.88
2022-10-26T07:46:25.962Z,100575.28
2022-10-26T07:48:54.067Z,100567.72
2022-10-26T07:51:21.418Z,100580.22
2022-10-26T07:53:49.158Z,100585.38
2022-10-26T07:56:16.520Z,100583.16
2022-10-26T07:58:44.180Z,100580.34
2022-10-26T08:01:13.282Z,100578.56
2022-10-26T08:03:42.778Z,100588.16
2022-10-26T08:06:10.232Z,100581.06
2022-10-26T08:08:38.138Z,100580.41
2022-10-26T08:11:06.591Z,100586.53
2022-10-26T08:13:34.463Z,100589.22
2022-10-26T08:16:04.503Z,100585.56
2022-10-26T08:18:32.667Z,100585.31
2022-10-26T08:21:10.882Z,100589.59
2022-10-26T08:23:40.089Z,100590.41
2022-10-26T08:26:07.771Z,100585.16
2022-10-26T08:28:35.317Z,100584.69
2022-10-26T08:31:02.757Z,100585.56
2022-10-26T08:33:30.523Z,100592.72
2022-10-26T08:35:59.179Z,100587.06
2022-10-26T08:38:28.893Z,100583.38
2022-10-26T08:40:57.637Z,100589.88
2022-10-26T08:43:32.044Z,100592.81
2022-10-26T08:46:04.371Z,100586.72
2022-10-26T08:48:35.766Z,100586.63
2022-10-26T08:51:08.921Z,100588.03
2022-10-26T08:53:42.795Z,100597.09
2022-10-26T08:56:16.115Z,100582.00
2022-10-26T08:58:48.671Z,100581.56
2022-10-26T09:01:16.887Z,100586.22
2022-10-26T09:03:44.665Z,100582.19
2022-10-26T09:06:29.332Z,100587.09
2022-10-26T09:09:07.316Z,100585.34
2022-10-26T09:11:52.053Z,100581.00
2022-10-26T09:14:28.432Z,100587.94
2022-10-26T09:17:08.606Z,100588.75
2022-10-26T09:20:02.694Z,100586.22
2022-10-26T09:22:36.917Z,100596.72
2022-10-26T09:25:21.710Z,100596.78
2022-10-26T09:28:03.705Z,100603.53
2022-10-26T09:30:36.049Z,100604.00
2022-10-26T09:33:12.628Z,100605.88
2022-10-26T09:35:50.923Z,100598.06
2022-10-26T09:38:33.952Z,100608.50
2022-10-26T09:41:32.003Z,100609.81
2022-10-26T09:44:12.299Z,100606.44
2022-10-26T09:46:47.230Z,100609.53
2022-10-26T09:49:18.444Z,100605.50
2022-10-26T09:51:49.539Z,100610.91
2022-10-26T09:54:19.162Z,100612.53
2022-10-26T09:56:56.593Z,100618.38
2022-10-26T09:59:26.125Z,100624.28
2022-10-26T10:01:53.929Z,100617.63
2022-10-26T10:04:22.903Z,100625.59
2022-10-26T10:06:52.096Z,100621.78
2022-10-26T10:09:21.222Z,100620.16
2022-10-26T10:11:52.441Z,100611.16
2022-10-26T10:14:19.903Z,100621.41
2022-10-26T10:16:55.734Z,100621.22
2022-10-26T10:19:26.004Z,100615.47
2022-10-26T10:21:56.816Z,100609.91
2022-10-26T10:24:27.081Z,100616.13
2022-10-26T10:27:04.556Z,100606.75
2022-10-26T10:29:33.507Z,100606.06
2022-10-26T10:32:02.613Z,100599.53
2022-10-26T10:34:31.904Z,100603.34
2022-10-26T10:37:00.950Z,100609.78
2022-10-26T10:39:37.718Z,100605.81
2022-10-26T10:42:16.926Z,100612.88
2022-10-26T10:44:46.268Z,100608.84
2022-10-26T10:47:22.490Z,100611.88
2022-10-26T10:50:19.695Z,100615.38
2022-10-26T10:52:48.184Z,100615.81
2022-10-26T10:55:19.720Z,100613.72
2022-10-26T10:58:13.345Z,100606.16
2022-10-26T11:00:44.331Z,100607.63
2022-10-26T11:03:53.929Z,100610.47
2022-10-26T11:06:28.680Z,100611.47
2022-10-26T11:09:06.754Z,100608.66
2022-10-26T11:11:41.801Z,100603.59
2022-10-26T11:14:19.477Z,100605.47
2022-10-26T11:16:51.658Z,100601.47
2022-10-26T11:19:24.828Z,100596.94
2022-10-26T11:21:54.500Z,100601.69
2022-10-26T11:24:27.125Z,100602.00
2022-10-26T11:26:58.522Z,100606.75
2022-10-26T11:29:36.591Z,100606.75
2022-10-26T11:32:14.113Z,100606.25
2022-10-26T11:34:50.413Z,100604.06
2022-10-26T11:37:24.524Z,100606.59
2022-10-26T11:40:02.225Z,100611.38
2022-10-26T11:42:41.616Z,100608.66
2022-10-26T11:45:38.772Z,100604.50
2022-10-26T11:48:20.323Z,100606.16
2022-10-26T11:50:56.106Z,100602.47
2022-10-26T11:53:28.600Z,100606.94
2022-10-26T11:55:58.214Z,100597.31
2022-10-26T11:58:27.681Z,100603.41
2022-10-26T12:01:01.047Z,100609.25
2022-10-26T12:03:32.562Z,100606.72
2022-10-26T12:06:00.143Z,100605.06
2022-10-26T12:08:31.149Z,100602.44
2022-10-26T12:11:05.519Z,100602.91
2022-10-26T12:13:38.166Z,100597.41
2022-10-26T12:16:17.954Z,100601.03
2022-10-26T12:18:56.779Z,100603.16
2022-10-26T12:21:28.959Z,100597.72
2022-10-26T12:23:57.900Z,100592.75
2022-10-26T12:26:39.546Z,100588.97
2022-10-26T12:29:29.969Z,100590.25
2022-10-26T12:31:59.338Z,100600.78
2022-10-26T12:34:59.599Z,100598.91
2022-10-26T12:37:36.525Z,100603.34
2022-10-26T12:40:39.332Z,100601.25
2022-10-26T12:43:38.426Z,100593.75
2022-10-26T12:46:41.074Z,100588.34
2022-10-26T12:49:41.152Z,100590.63
2022-10-26T12:52:20.953Z,100591.81
2022-10-26T12:55:08.830Z,100588.31
2022-10-26T12:57:47.715Z,100592.91
2022-10-26T13:00:18.056Z,100593.91
2022-10-26T13:02:58.763Z,100586.53
2022-10-26T13:05:52.573Z,100582.69
2022-10-26T13:08:21.484Z,100579.41
2022-10-26T13:11:02.752Z,100576.09
2022-10-26T13:13:32.578Z,100579.50
2022-10-26T13:16:01.515Z,100578.09
2022-10-26T13:18:30.193Z,100577.75
2022-10-26T13:21:07.263Z,100576.13
2022-10-26T13:23:38.684Z,100576.31
2022-10-26T13:26:08.915Z,100583.44
2022-10-26T13:28:55.084Z,100576.19
2022-10-26T13:31:53.698Z,100569.56
2022-10-26T13:34:22.691Z,100576.03
2022-10-26T13:36:55.485Z,100580.25
2022-10-26T13:39:28.151Z,100579.19
2022-10-26T13:41:58.517Z,100575.06
2022-10-26T13:44:29.382Z,100578.47
2022-10-26T13:47:02.182Z,100574.44
2022-10-26T13:49:34.920Z,100579.78
2022-10-26T13:52:04.364Z,100576.84
2022-10-26T13:54:39.584Z,100575.44
2022-10-26T13:57:17.089Z,100579.34
2022-10-26T13:59:45.955Z,100571.44
2022-10-26T14:02:24.013Z,100572.31
2022-10-26T14:05:00.092Z,100569.78
2022-10-26T14:07:36.905Z,100583.56
2022-10-26T14:10:06.465Z,100587.63
2022-10-26T14:12:34.397Z,100588.81
2022-10-26T14:15:06.713Z,100589.91
2022-10-26T14:17:34.787Z,100584.38
2022-10-26T14:20:03.105Z,100586.84
2022-10-26T14:22:30.886Z,100581.31
2022-10-26T14:25:00.310Z,100575.03
2022-10-26T14:27:33.763Z,100572.38
2022-10-26T14:30:21.719Z,100579.75
2022-10-26T14:32:49.454Z,100582.25
2022-10-26T14:35:17.729Z,100582.41
2022-10-26T14:37:50.131Z,100580.00
2022-10-26T14:40:19.891Z,100581.56
2022-10-26T14:42:51.650Z,100583.25
2022-10-26T14:45:29.798Z,100586.91
2022-10-26T14:48:06.904Z,100576.34
2022-10-26T14:50:34.547Z,100580.34
2022-10-26T14:53:05.373Z,100575.06
2022-10-26T14:55:48.308Z,100583.25
2022-10-26T14:58:24.182Z,100576.91
2022-10-26T15:01:32.049Z,100567.59
2022-10-26T15:04:05.089Z,100580.13
2022-10-26T15:06:38.368Z,100577.88
2022-10-26T15:09:06.854Z,100582.34
2022-10-26T15:11:35.358Z,100581.81
2022-10-26T15:14:12.658Z,100579.84
2022-10-26T15:16:40.058Z,100585.31
2022-10-26T15:19:10.805Z,100582.44
2022-10-26T15:21:40.098Z,100582.88
2022-10-26T15:24:26.944Z,100577.56
2022-10-26T15:26:54.514Z,100584.31
2022-10-26T15:29:41.759Z,100581.16
2022-10-26T15:32:27.601Z,100583.53
2022-10-26T15:35:25.739Z,100590.78
2022-10-26T15:37:54.962Z,100593.03
2022-10-26T15:42:59.795Z,100606.53
2022-10-26T15:45:30.956Z,100602.75
2022-10-26T15:48:00.451Z,100605.72
2022-10-26T15:50:29.079Z,100612.84
2022-10-26T15:53:00.523Z,100606.13
2022-10-26T15:55:30.347Z,100616.34
2022-10-26T15:57:57.946Z,100614.44
2022-10-26T16:00:25.833Z,100612.47
2022-10-26T16:02:54.555Z,100615.31
2022-10-26T16:05:22.223Z,100618.25
2022-10-26T16:07:49.958Z,100621.97
2022-10-26T16:10:21.798Z,100632.06
2022-10-26T16:12:49.673Z,100625.09
2022-10-26T16:15:20.517Z,100638.53
2022-10-26T16:17:48.954Z,100641.78
2022-10-26T16:20:20.933Z,100638.94
2022-10-26T16:22:49.004Z,100634.84
2022-10-26T16:25:18.631Z,100643.94
2022-10-26T16:27:46.242Z,100642.88
2022-10-26T16:30:14.427Z,100653.41
2022-10-26T16:32:42.153Z,100651.38
2022-10-26T16:35:11.172Z,100658.38
2022-10-26T16:37:40.271Z,100652.88
2022-10-26T16:40:09.667Z,100668.13
2022-10-26T16:42:37.199Z,100665.91
2022-10-26T16:45:05.765Z,100673.28
2022-10-26T16:47:33.732Z,100677.78
2022-10-26T16:50:01.425Z,100675.81
2022-10-26T16:52:28.857Z,100679.16
2022-10-26T16:54:58.080Z,100676.69
2022-10-26T16:57:25.629Z,100674.44
2022-10-26T16:59:53.270Z,100678.94
2022-10-26T17:02:20.891Z,100681.06
2022-10-26T17:04:48.754Z,100674.94
2022-10-26T17:07:16.310Z,100679.22
2022-10-26T17:09:44.293Z,100670.63
2022-10-26T17:12:13.595Z,100676.09
2022-10-26T17:14:41.518Z,100674.28
2022-10-26T17:17:08.920Z,100672.59
2022-10-26T17:19:36.536Z,100671.25
2022-10-26T17:22:06.410Z,100676.22
2022-10-26T17:24:36.401Z,100689.66
2022-10-26T17:27:03.985Z,100692.72
2022-10-26T17:29:33.097Z,100695.59
2022-10-26T17:32:00.530Z,100699.28
2022-10-26T17:34:30.052Z,100691.47
2022-10-26T17:36:57.633Z,100705.97
2022-10-26T17:39:25.608Z,100704.75
2022-10-26T17:41:52.950Z,100711.00
2022-10-26T17:44:20.769Z,100698.59
2022-10-26T17:46:49.669Z,100698.13
2022-10-26T17:49:17.493Z,100694.22
2022-10-26T17:51:45.022Z,100698.59
2022-10-26T17:54:12.810Z,100714.16
2022-10-26T17:56:40.144Z,100719.91
2022-10-26T17:59:11.973Z,100722.88
2022-10-26T18:01:39.716Z,100728.19
2022-10-26T18:04:09.033Z,100725.63
2022-10-26T18:06:36.577Z,100726.66
2022-10-26T18:09:04.532Z,100727.41
2022-10-26T18:14:04.669Z,100742.81
2022-10-26T18:16:32.065Z,100746.53
2022-10-26T18:19:01.725Z,100741.84
2022-10-26T18:21:33.964Z,100746.28
2022-10-26T18:24:02.240Z,100745.47
2022-10-26T18:26:31.114Z,100738.13
2022-10-26T18:29:01.678Z,100744.59
2022-10-26T18:31:31.077Z,100748.16
2022-10-26T18:34:00.280Z,100742.81
2022-10-26T18:36:28.750Z,100741.97
2022-10-26T18:38:58.478Z,100751.78
2022-10-26T18:41:29.755Z,100748.09
2022-10-26T18:43:57.667Z,100747.59
2022-10-26T18:46:28.079Z,100741.34
2022-10-26T18:48:56.538Z,100748.59
2022-10-26T18:51:25.690Z,100744.88
2022-10-26T18:53:53.817Z,100741.19
2022-10-26T18:56:22.684Z,100747.75
2022-10-26T18:58:52.377Z,100747.41
2022-10-26T19:01:21.687Z,100754.84
2022-10-26T19:03:54.185Z,100755.50
2022-10-26T19:06:23.096Z,100756.31
2022-10-26T19:08:51.518Z,100750.84
2022-10-26T19:11:20.641Z,100756.44
2022-10-26T19:13:50.250Z,100755.94
2022-10-26T19:16:40.355Z,100762.03
2022-10-26T19:19:07.354Z,100762.97
2022-10-26T19:21:35.491Z,100773.66
2022-10-26T19:24:04.436Z,100770.22
2022-10-26T19:26:36.772Z,100778.28
2022-10-26T19:29:11.436Z,100782.25
2022-10-26T19:31:38.852Z,100778.38
2022-10-26T19:34:06.668Z,100777.66
2022-10-26T19:36:34.404Z,100793.63
2022-10-26T19:39:02.388Z,100788.16
2022-10-26T19:41:30.093Z,100793.53
2022-10-26T19:46:29.826Z,100798.47
2022-10-26T19:48:59.143Z,100802.25
2022-10-26T19:51:28.526Z,100801.38
2022-10-26T19:53:59.068Z,100802.69
2022-10-26T19:56:29.797Z,100805.28
2022-10-26T19:58:57.754Z,100802.53
2022-10-26T20:01:25.190Z,100810.44
2022-10-26T20:03:54.704Z,100819.34
2022-10-26T20:06:22.184Z,100816.88
2022-10-26T20:08:50.194Z,100819.25
2022-10-26T20:11:19.014Z,100820.59
2022-10-26T20:13:47.841Z,100829.75
2022-10-26T20:16:17.511Z,100833.03
2022-10-26T20:18:47.902Z,100828.09
2022-10-26T20:21:17.927Z,100822.28
2022-10-26T20:23:45.877Z,100830.19
2022-10-26T20:26:16.382Z,100825.81
2022-10-26T20:28:47.915Z,100837.22
2022-10-26T20:31:15.376Z,100831.34
2022-10-26T20:33:43.629Z,100831.75
2022-10-26T20:36:11.748Z,100826.06
2022-10-26T20:38:41.429Z,100832.84
2022-10-26T20:41:12.351Z,100839.75
2022-10-26T20:43:41.392Z,100847.56
2022-10-26T20:46:10.980Z,100850.78
2022-10-26T20:48:39.223Z,100849.56
2022-10-26T20:53:51.516Z,100839.81
2022-10-26T20:56:24.075Z,100849.41
2022-10-26T20:58:54.138Z,100845.28
2022-10-26T21:01:24.738Z,100844.59
2022-10-26T21:03:53.611Z,100843.28
2022-10-26T21:06:22.005Z,100848.25
2022-10-26T21:08:52.256Z,100850.09
2022-10-26T21:11:20.664Z,100849.81
2022-10-26T21:13:52.367Z,100851.22
2022-10-26T21:16:19.760Z,100858.38
2022-10-26T21:18:47.440Z,100858.53
2022-10-26T21:21:14.820Z,100861.53
2022-10-26T21:23:42.824Z,100863.47
2022-10-26T21:26:11.814Z,100856.25
2022-10-26T21:28:40.695Z,100851.66
2022-10-26T21:31:10.414Z,100857.25
2022-10-26T21:33:38.757Z,100854.09
2022-10-26T21:36:08.109Z,100851.94
2022-10-26T21:38:36.172Z,100863.25
2022-10-26T21:41:04.346Z,100860.69
2022-10-26T21:43:34.450Z,100855.00
2022-10-26T21:46:04.722Z,100868.69
2022-10-26T21:48:33.791Z,100866.59
2022-10-26T21:51:01.998Z,100861.97
2022-10-26T21:53:29.975Z,100871.59
2022-10-26T21:56:01.456Z,100870.81
2022-10-26T21:58:29.933Z,100872.84
2022-10-26T22:01:06.212Z,100874.63
2022-10-26T22:03:34.250Z,100876.94
2022-10-26T22:06:01.687Z,100871.84
2022-10-26T22:08:30.325Z,100875.41
2022-10-26T22:10:58.203Z,100878.09
2022-10-26T22:13:28.609Z,100879.38
2022-10-26T22:16:07.526Z,100882.44
2022-10-26T22:18:36.068Z,100872.84
2022-10-26T22:21:04.156Z,100874.06
2022-10-26T22:23:33.581Z,100875.09
2022-10-26T22:26:04.684Z,100874.50
2022-10-26T22:28:34.655Z,100871.53
2022-10-26T22:31:08.749Z,100876.25
2022-10-26T22:33:36.554Z,100875.22
2022-10-26T22:36:05.168Z,100872.38
2022-10-26T22:38:32.954Z,100875.09
2022-10-26T22:41:00.699Z,100886.91
2022-10-26T22:43:28.527Z,100883.03
2022-10-26T22:46:00.407Z,100875.94
2022-10-26T22:48:31.373Z,100877.56
2022-10-26T22:51:05.315Z,100879.66
2022-10-26T22:53:33.298Z,100882.69
2022-10-26T22:56:01.194Z,100892.25
2022-10-26T22:58:29.844Z,100890.09
2022-10-26T23:01:03.519Z,100891.72
2022-10-26T23:03:33.341Z,100881.88
2022-10-26T23:06:01.710Z,100888.53
2022-10-26T23:08:29.910Z,100888.78
2022-10-26T23:10:59.910Z,100896.84
2022-10-26T23:13:28.226Z,100893.72
2022-10-26T23:15:56.457Z,100896.13
2022-10-26T23:18:24.759Z,100900.31
2022-10-26T23:20:53.513Z,100900.97
2022-10-26T23:23:21.342Z,100903.25
2022-10-26T23:25:49.060Z,100902.47
2022-10-26T23:28:16.923Z,100903.63
2022-10-26T23:30:45.563Z,100906.72
2022-10-26T23:33:13.630Z,100908.03
2022-10-26T23:35:41.362Z,100905.16
2022-10-26T23:38:10.710Z,100909.88
2022-10-26T23:40:38.316Z,100910.81
2022-10-26T23:43:06.142Z,100916.56
2022-10-26T23:45:33.661Z,100922.69
2022-10-26T23:48:01.402Z,100921.47
2022-10-26T23:50:28.941Z,100917.25
2022-10-26T23:52:56.717Z,100919.84
2022-10-26T23:55:25.623Z,100928.25
2022-10-26T23:57:53.571Z,100924.31
